createdAt,value
2022-12-05T00:02:21.654Z,31.10
2022-12-05T00:06:21.318Z,32.37
2022-12-05T00:10:17.832Z,31.10
2022-12-05T00:14:14.376Z,26.15
2022-12-05T00:18:10.914Z,36.00
2022-12-05T00:22:07.452Z,38.45
2022-12-05T00:26:03.980Z,36.63
2022-12-05T00:30:00.739Z,25.73
2022-12-05T00:33:57.328Z,36.17
2022-12-05T00:37:53.870Z,32.33
2022-12-05T00:41:50.412Z,39.55
2022-12-05T00:45:47.210Z,41.07
2022-12-05T00:49:43.775Z,43.33
2022-12-05T00:53:40.295Z,40.05
2022-12-05T00:57:36.879Z,39.88
2022-12-05T01:01:33.599Z,35.13
2022-12-05T01:05:30.263Z,41.40
2022-12-05T01:09:26.794Z,40.77
2022-12-05T01:13:23.355Z,41.03
2022-12-05T01:17:19.879Z,40.92
2022-12-05T01:21:16.435Z,46.42
2022-12-05T01:25:13.008Z,42.47
2022-12-05T01:29:09.620Z,46.20
2022-12-05T01:33:06.223Z,41.65
2022-12-05T01:37:02.799Z,38.55
2022-12-05T01:40:59.355Z,43.13
2022-12-05T01:44:15.994Z,48.87
2022-12-05T01:48:12.555Z,43.03
2022-12-05T01:52:09.242Z,51.22
2022-12-05T01:56:05.781Z,51.97
2022-12-05T02:00:02.596Z,43.92
2022-12-05T02:04:08.499Z,46.33
2022-12-05T02:08:05.117Z,40.83
2022-12-05T02:12:07.337Z,44.60
2022-12-05T02:15:23.963Z,47.30
2022-12-05T02:19:15.348Z,48.47
2022-12-05T02:22:50.899Z,47.92
2022-12-05T02:26:33.476Z,51.30
2022-12-05T02:30:11.455Z,46.17
2022-12-05T02:34:19.955Z,46.72
2022-12-05T02:37:56.567Z,50.28
2022-12-05T02:41:42.349Z,50.20
2022-12-05T02:45:45.276Z,48.50
2022-12-05T02:49:41.870Z,53.50
2022-12-05T02:53:38.493Z,50.88
2022-12-05T02:57:35.017Z,57.72
2022-12-05T03:01:31.670Z,52.17
2022-12-05T03:05:31.855Z,47.20
2022-12-05T03:09:31.401Z,34.83
2022-12-05T03:13:27.972Z,31.63
2022-12-05T03:17:24.536Z,36.15
2022-12-05T03:21:24.457Z,32.70
2022-12-05T03:25:20.974Z,27.67
2022-12-05T03:29:10.167Z,31.05
2022-12-05T03:32:32.796Z,31.90
2022-12-05T03:36:31.976Z,34.53
2022-12-05T03:40:37.887Z,32.78
2022-12-05T03:44:03.534Z,33.53
2022-12-05T03:48:05.097Z,33.05
2022-12-05T03:52:07.381Z,31.10
2022-12-05T03:56:09.399Z,33.47
2022-12-05T04:00:25.826Z,38.80
2022-12-05T04:04:33.400Z,38.50
2022-12-05T04:08:37.960Z,40.60
2022-12-05T04:12:42.181Z,53.85
2022-12-05T04:17:19.235Z,56.25
2022-12-05T04:21:39.252Z,90.47
2022-12-05T04:25:40.910Z,70.30
2022-12-05T04:29:51.395Z,61.03
2022-12-05T04:33:54.902Z,55.50
2022-12-05T04:37:56.548Z,62.15
2022-12-05T04:42:00.872Z,46.33
2022-12-05T04:46:02.523Z,47.40
2022-12-05T04:50:04.219Z,50.88
2022-12-05T04:54:05.964Z,55.15
2022-12-05T04:58:06.415Z,57.28
2022-12-05T05:02:10.767Z,59.03
2022-12-05T05:06:12.450Z,58.27
2022-12-05T05:10:14.055Z,59.58
2022-12-05T05:54:18.899Z,56.23
2022-12-05T05:57:20.848Z,56.07
2022-12-05T06:00:22.762Z,60.05
2022-12-05T06:03:24.850Z,52.88
2022-12-05T06:06:26.951Z,68.05
2022-12-05T06:09:28.746Z,59.50
2022-12-05T06:12:30.727Z,63.03
2022-12-05T06:15:32.639Z,62.15
2022-12-05T06:18:34.928Z,60.55
2022-12-05T06:21:37.020Z,62.15
2022-12-05T06:24:39.087Z,58.05
2022-12-05T06:27:40.887Z,68.07
2022-12-05T06:30:42.911Z,60.35
2022-12-05T06:33:45.425Z,64.30
2022-12-05T06:36:47.255Z,74.80
2022-12-05T06:39:51.362Z,60.57
2022-12-05T06:42:53.286Z,69.80
2022-12-05T06:45:55.225Z,67.53
2022-12-05T06:48:58.843Z,63.25
2022-12-05T06:52:00.858Z,67.40
2022-12-05T06:55:03.051Z,71.05
2022-12-05T06:58:05.167Z,77.33
2022-12-05T07:01:32.650Z,79.40
2022-12-05T07:04:35.017Z,124.78
2022-12-05T07:07:37.273Z,121.72
2022-12-05T07:10:39.287Z,149.25
2022-12-05T07:13:41.258Z,167.60
2022-12-05T07:16:43.179Z,129.38
2022-12-05T07:19:48.287Z,148.90
2022-12-05T07:22:50.179Z,136.40
2022-12-05T07:25:52.128Z,111.47
2022-12-05T07:28:57.352Z,118.33
2022-12-05T07:31:59.406Z,86.03
2022-12-05T07:35:02.269Z,136.40
2022-12-05T07:38:04.379Z,154.52
2022-12-05T07:41:13.038Z,228.47
2022-12-05T07:44:15.563Z,190.07
2022-12-05T07:47:17.532Z,164.52
2022-12-05T07:50:19.509Z,252.25
2022-12-05T07:56:29.453Z,185.63
2022-12-05T07:59:31.344Z,289.07
2022-12-05T08:02:35.681Z,318.08
2022-12-05T08:05:40.804Z,328.63
2022-12-05T08:08:43.233Z,216.80
2022-12-05T08:11:51.067Z,395.50
2022-12-05T08:14:54.375Z,302.73
2022-12-05T08:17:56.274Z,200.02
2022-12-05T08:21:05.516Z,246.10
2022-12-05T08:24:08.230Z,277.50
2022-12-05T08:27:10.635Z,348.43
2022-12-05T08:30:12.840Z,181.03
2022-12-05T08:33:14.940Z,310.88
2022-12-05T08:36:18.117Z,306.83
2022-12-05T08:39:20.482Z,260.98
2022-12-05T08:42:22.404Z,192.32
2022-12-05T08:45:24.373Z,273.27
2022-12-05T08:48:29.644Z,267.60
2022-12-05T08:51:32.352Z,336.67
2022-12-05T08:54:34.199Z,150.52
2022-12-05T08:57:36.412Z,151.90
2022-12-05T09:00:38.887Z,294.87
2022-12-05T09:03:47.392Z,252.85
2022-12-05T09:06:49.777Z,296.52
2022-12-05T09:09:52.323Z,239.13
2022-12-05T09:12:54.256Z,379.37
2022-12-05T09:15:56.234Z,248.43
2022-12-05T09:18:58.392Z,340.50
2022-12-05T09:22:00.566Z,335.30
2022-12-05T09:25:02.443Z,318.10
2022-12-05T09:28:04.600Z,319.40
2022-12-05T09:39:47.075Z,234.40
2022-12-05T09:43:35.544Z,209.27
2022-12-05T09:46:58.155Z,131.90
2022-12-05T09:50:29.737Z,110.20
2022-12-05T09:53:37.621Z,167.60
2022-12-05T09:56:41.631Z,123.88
2022-12-05T09:59:43.538Z,114.20
2022-12-05T10:02:45.573Z,151.02
2022-12-05T10:06:23.117Z,145.37
2022-12-05T10:09:46.826Z,239.52
2022-12-05T10:13:03.684Z,249.35
2022-12-05T10:16:13.345Z,218.52
2022-12-05T10:19:22.392Z,170.77
2022-12-05T10:22:50.198Z,265.50
2022-12-05T10:25:58.324Z,181.10
2022-12-05T10:29:11.535Z,167.63
2022-12-05T10:32:20.344Z,139.25
2022-12-05T10:35:24.777Z,143.67
2022-12-05T10:38:31.308Z,117.27
2022-12-05T10:41:34.348Z,140.38
2022-12-05T10:44:37.316Z,142.77
2022-12-05T10:47:39.183Z,168.90
2022-12-05T10:50:44.321Z,172.50
2022-12-05T10:53:50.900Z,129.83
2022-12-05T10:56:53.847Z,142.95
2022-12-05T10:59:57.148Z,179.70
2022-12-05T11:03:04.112Z,218.30
2022-12-05T11:06:25.623Z,175.57
2022-12-05T11:09:31.373Z,197.80
2022-12-05T11:12:33.195Z,146.20
2022-12-05T11:15:47.555Z,74.82
2022-12-05T11:18:53.496Z,140.77
2022-12-05T11:21:56.351Z,225.38
2022-12-05T11:24:58.496Z,215.03
2022-12-05T11:28:20.402Z,171.85
2022-12-05T11:31:27.410Z,212.90
2022-12-05T11:34:47.684Z,193.65
2022-12-05T11:59:52.667Z,160.23
2022-12-05T12:03:18.654Z,119.27
2022-12-05T12:06:44.607Z,152.17
2022-12-05T12:10:09.681Z,149.95
2022-12-05T12:13:30.637Z,113.57
2022-12-05T12:16:45.304Z,100.50
2022-12-05T12:40:03.239Z,85.53
2022-12-05T12:43:44.905Z,87.88
2022-12-05T12:46:45.772Z,85.80
2022-12-05T12:50:02.713Z,89.22
2022-12-05T12:53:29.527Z,77.00
2022-12-05T12:56:40.803Z,70.57
2022-12-05T13:00:04.928Z,84.78
2022-12-05T13:03:12.619Z,76.93
2022-12-05T13:06:29.801Z,75.13
2022-12-05T13:09:50.175Z,67.43
2022-12-05T13:12:55.623Z,71.32
2022-12-05T13:16:01.004Z,86.53
2022-12-05T13:19:05.732Z,78.25
2022-12-05T13:22:08.925Z,90.60
2022-12-05T13:25:15.965Z,73.00
2022-12-05T13:28:54.731Z,84.00
2022-12-05T13:31:56.781Z,77.40
2022-12-05T13:35:07.600Z,82.38
2022-12-05T13:38:51.518Z,74.88
2022-12-05T13:42:15.360Z,68.30
2022-12-05T13:45:20.209Z,81.60
2022-12-05T13:48:26.147Z,88.40
2022-12-05T13:51:35.220Z,84.05
2022-12-05T13:54:44.312Z,94.82
2022-12-05T13:57:49.451Z,95.90
2022-12-05T14:01:23.954Z,98.43
2022-12-05T14:04:46.292Z,83.45
2022-12-05T14:07:58.569Z,91.03
2022-12-05T14:11:05.739Z,79.00
2022-12-05T14:14:46.622Z,76.63
2022-12-05T14:18:17.458Z,75.28
2022-12-05T14:21:59.125Z,75.15
2022-12-05T14:26:07.146Z,81.32
2022-12-05T14:29:56.730Z,79.85
2022-12-05T14:33:23.103Z,81.67
2022-12-05T14:36:30.878Z,70.97
2022-12-05T14:39:43.476Z,77.00
2022-12-05T14:42:59.060Z,78.68
2022-12-05T14:46:03.712Z,77.30
2022-12-05T14:49:38.160Z,77.30
2022-12-05T15:45:21.825Z,70.75
2022-12-05T15:48:23.697Z,68.95
2022-12-05T15:51:35.704Z,83.82
2022-12-05T15:54:39.404Z,76.50
2022-12-05T15:57:54.503Z,77.60
2022-12-05T16:01:04.380Z,75.25
2022-12-05T16:04:31.752Z,97.07
2022-12-05T16:07:35.544Z,87.10
2022-12-05T16:10:39.875Z,81.65
2022-12-05T16:13:56.519Z,101.73
2022-12-05T16:38:22.639Z,75.00
2022-12-05T16:41:39.329Z,123.95
2022-12-05T16:44:47.765Z,117.13
2022-12-05T16:47:55.406Z,126.68
2022-12-05T16:51:19.364Z,174.63
2022-12-05T16:54:21.332Z,135.93
2022-12-05T16:57:23.311Z,153.75
2022-12-05T17:00:26.988Z,161.48
2022-12-05T17:03:36.624Z,113.43
2022-12-05T17:07:12.954Z,133.65
2022-12-05T17:10:15.740Z,160.27
2022-12-05T17:13:19.742Z,162.13
2022-12-05T17:16:21.849Z,149.68
2022-12-05T17:19:24.477Z,108.70
2022-12-05T17:22:28.302Z,139.35
2022-12-05T17:25:37.051Z,132.33
2022-12-05T17:28:39.067Z,91.38
2022-12-05T17:31:41.078Z,127.10
2022-12-05T17:34:47.157Z,95.40
2022-12-05T17:37:50.181Z,99.10
2022-12-05T17:40:52.666Z,105.33
2022-12-05T17:43:54.905Z,96.35
2022-12-05T17:46:57.045Z,84.53
2022-12-05T17:49:59.297Z,122.68
2022-12-05T17:53:07.239Z,117.30
2022-12-05T17:56:09.900Z,112.13
2022-12-05T17:59:11.760Z,114.32
2022-12-05T18:02:15.847Z,115.50
2022-12-05T18:05:18.787Z,96.88
2022-12-05T18:08:20.850Z,96.05
2022-12-05T18:11:23.051Z,83.57
2022-12-05T18:14:27.535Z,82.45
2022-12-05T18:17:29.597Z,98.00
2022-12-05T18:20:32.254Z,95.57
2022-12-05T18:23:36.409Z,96.18
2022-12-05T18:26:38.722Z,89.23
2022-12-05T18:29:41.108Z,94.40
2022-12-05T18:32:43.375Z,77.40
2022-12-05T18:35:45.466Z,73.20
2022-12-05T18:38:52.700Z,82.75
2022-12-05T18:41:54.785Z,85.90
2022-12-05T18:44:57.591Z,81.38
2022-12-05T18:48:16.271Z,83.32
2022-12-05T18:51:24.016Z,114.90
2022-12-05T18:54:26.248Z,104.18
2022-12-05T18:57:28.363Z,96.67
2022-12-05T19:00:31.637Z,88.82
2022-12-05T19:12:14.191Z,102.25
2022-12-05T19:15:16.063Z,94.73
2022-12-05T19:18:18.335Z,81.55
2022-12-05T19:21:29.413Z,73.72
2022-12-05T19:24:31.456Z,79.95
2022-12-05T19:27:33.343Z,64.85
2022-12-05T19:30:37.084Z,92.30
2022-12-05T19:33:47.893Z,71.50
2022-12-05T19:36:49.987Z,70.75
2022-12-05T19:39:52.504Z,75.15
2022-12-05T19:42:54.688Z,61.92
2022-12-05T19:45:58.076Z,83.63
2022-12-05T19:49:06.242Z,83.40
2022-12-05T19:52:08.491Z,108.60
2022-12-05T19:55:11.896Z,86.47
2022-12-05T19:58:14.211Z,89.13
2022-12-05T20:01:28.612Z,111.57
2022-12-05T20:04:31.648Z,115.03
2022-12-05T20:07:33.617Z,89.10
2022-12-05T20:10:37.851Z,101.43
2022-12-05T20:13:48.828Z,73.53
2022-12-05T20:16:51.744Z,72.53
2022-12-05T20:19:54.039Z,58.80
2022-12-05T20:22:56.344Z,80.97
2022-12-05T20:26:07.073Z,84.22
2022-12-05T20:29:10.135Z,68.93
2022-12-05T20:32:12.232Z,63.97
2022-12-05T20:35:15.246Z,50.67
2022-12-05T20:38:18.748Z,64.90
2022-12-05T20:41:21.219Z,71.95
2022-12-05T20:44:23.455Z,78.80
2022-12-05T20:47:25.355Z,79.80
2022-12-05T20:50:29.196Z,75.00
2022-12-05T20:53:36.509Z,67.32
2022-12-05T20:56:40.259Z,60.97
2022-12-05T20:59:42.091Z,73.53
2022-12-05T21:02:44.375Z,104.47
2022-12-05T21:05:46.256Z,86.80
2022-12-05T21:08:48.239Z,76.72
2022-12-05T21:11:50.096Z,70.25
2022-12-05T21:14:52.618Z,52.05
2022-12-05T21:17:54.481Z,75.93
2022-12-05T21:21:01.603Z,76.50
2022-12-05T21:24:04.859Z,73.15
2022-12-05T21:27:06.835Z,69.30
2022-12-05T21:30:10.193Z,72.20
2022-12-05T21:33:14.528Z,71.70
2022-12-05T21:36:17.124Z,74.95
2022-12-05T21:39:18.920Z,77.10
2022-12-05T21:42:21.060Z,74.88
2022-12-05T21:45:22.915Z,68.72
2022-12-05T21:48:25.245Z,69.57
2022-12-05T21:51:27.145Z,66.32
2022-12-05T21:54:30.337Z,73.72
2022-12-05T21:57:32.619Z,64.30
2022-12-05T22:00:42.062Z,72.00
2022-12-05T22:03:44.772Z,70.37
2022-12-05T22:06:46.708Z,70.03
2022-12-05T22:09:48.577Z,70.47
2022-12-05T22:12:50.839Z,68.25
2022-12-05T22:15:58.116Z,60.15
2022-12-05T22:19:00.078Z,64.33
2022-12-05T22:22:02.183Z,57.05
2022-12-05T22:25:04.738Z,62.45
2022-12-05T22:28:06.573Z,64.32
2022-12-05T22:31:16.464Z,65.57
2022-12-05T22:34:18.367Z,62.53
2022-12-05T22:37:20.199Z,62.65
2022-12-05T22:40:35.744Z,54.08
2022-12-05T22:43:38.378Z,63.33
2022-12-05T22:46:40.736Z,56.38
2022-12-05T22:49:42.667Z,62.10
2022-12-05T22:52:45.212Z,57.47
2022-12-05T22:55:47.444Z,61.03
2022-12-05T22:58:49.555Z,60.80
2022-12-05T23:01:52.052Z,61.28
2022-12-05T23:04:54.061Z,61.27
2022-12-05T23:07:56.112Z,58.00
2022-12-05T23:11:04.947Z,62.85
2022-12-05T23:14:07.203Z,60.92
2022-12-05T23:17:09.076Z,53.97
2022-12-05T23:20:11.347Z,61.97
2022-12-05T23:23:13.493Z,59.90
2022-12-05T23:26:16.739Z,60.00
2022-12-05T23:29:18.676Z,60.70
2022-12-05T23:32:20.597Z,64.95
2022-12-05T23:35:22.486Z,60.30
2022-12-05T23:38:24.449Z,58.35
2022-12-05T23:41:27.498Z,65.40
2022-12-05T23:44:29.788Z,61.75
2022-12-05T23:47:31.688Z,62.42
2022-12-05T23:50:33.683Z,72.07
2022-12-05T23:53:38.095Z,60.25
2022-12-05T23:56:40.034Z,59.63
2022-12-05T23:59:41.948Z,61.78
